N7MLR Weather Reports


Display with metric or nautical units.
time (UTC)temp
F
wind
direction
speed
MPH
gust
MPH
rain 1hr
in
rain 24hr
in
rain mn
in
humidity
%
barometer
mb
20220706012230 92 216 1.0 1.0 0.00 0.00 0.00 42 1013.2
20220706011730 92 228 2.0 2.0 0.00 0.00 0.00 43 1013.3
20220706011230 92 217 1.0 1.0 0.00 0.00 0.00 43 1013.2
20220706010730 93 228 1.0 1.0 0.00 0.00 0.00 42 1012.9
20220706010228 93 209 1.0 3.0 0.00 0.00 0.00 42 1013.1
20220706005726 93 215 1.0 2.0 0.00 0.00 0.00 43 1012.9
20220706005225 93 215 2.0 2.0 0.00 0.00 0.00 43 1012.8
20220706004725 93 240 1.0 1.0 0.00 0.00 0.00 42 1012.6
20220706004224 94 240 2.0 3.0 0.00 0.00 0.00 41 1012.7
20220706003724 95 231 0.0 1.0 0.00 0.00 0.00 41 1012.8
20220706003223 95 238 3.0 5.0 0.00 0.00 0.00 41 1012.5
20220706002722 95 261 1.0 1.0 0.00 0.00 0.00 41 1012.5
20220706002221 94 221 5.0 6.0 0.00 0.00 0.00 42 1012.5
20220706001721 95 256 3.0 6.0 0.00 0.00 0.00 41 1012.4
20220706001220 96 187 2.0 3.0 0.00 0.00 0.00 40 1012.8
20220706000720 96 233 2.0 3.0 0.00 0.00 0.00 40 1012.5
20220706000218 96 213 2.0 2.0 0.00 0.00 0.00 38 1012.6
20220705235719 96 226 2.0 3.0 0.00 0.00 0.00 38 1012.6
20220705235217 96 237 3.0 5.0 0.00 0.00 0.00 37 1012.9
20220705234717 97 240 3.0 3.0 0.00 0.00 0.00 37 1012.6
20220705234215 97 231 1.0 2.0 0.00 0.00 0.00 39 1012.5
20220705233715 97 205 1.0 2.0 0.00 0.00 0.00 38 1012.8
20220705233213 97 148 3.0 5.0 0.00 0.00 0.00 37 1012.8
20220705232712 97 205 4.0 5.0 0.00 0.00 0.00 38 1012.7
20220705232211 97 113 4.0 6.0 0.00 0.00 0.00 38 1012.7
20220705231711 98 305 4.0 6.0 0.00 0.00 0.00 37 1012.7
20220705231209 98 97 2.0 2.0 0.00 0.00 0.00 35 1012.8
20220705230709 98 200 1.0 2.0 0.00 0.00 0.00 37 1012.7
20220705230207 99 255 4.0 5.0 0.00 0.00 0.00 36 1012.9
20220705225707 98 207 2.0 2.0 0.00 0.00 0.00 37 1012.8
20220705225206 98 90 2.0 3.0 0.00 0.00 0.00 36 1013.0
20220705224705 98 142 3.0 5.0 0.00 0.00 0.00 37 1013.1
20220705224203 98 255 3.0 3.0 0.00 0.00 0.00 36 1012.9
20220705223702 99 187 5.0 6.0 0.00 0.00 0.00 37 1012.9
20220705223201 99 201 2.0 2.0 0.00 0.00 0.00 36 1013.0
20220705222659 99 197 2.0 3.0 0.00 0.00 0.00 35 1013.2
20220705222159 99 194 2.0 2.0 0.00 0.00 0.00 36 1013.3
20220705221658 97 260 3.0 3.0 0.00 0.00 0.00 38 1013.1
20220705221157 98 220 1.0 1.0 0.00 0.00 0.00 36 1013.5
20220705220656 98 226 2.0 2.0 0.00 0.00 0.00 37 1013.5
20220705220155 99 123 4.0 5.0 0.00 0.00 0.00 37 1013.6
20220705215653 97 198 1.0 2.0 0.00 0.00 0.00 36 1013.7
20220705215151 98 92 4.0 5.0 0.00 0.00 0.00 36 1013.7
20220705214650 99 213 0.0 1.0 0.00 0.00 0.00 37 1013.7
20220705214149 98 36 2.0 3.0 0.00 0.00 0.00 36 1014.1
20220705213648 98 202 4.0 6.0 0.00 0.00 0.00 37 1014.1
20220705213147 99 198 0.0 1.0 0.00 0.00 0.00 36 1014.1
20220705212648 98 0 3.0 5.0 0.00 0.00 0.00 37 1014.3
20220705212146 98 17 3.0 3.0 0.00 0.00 0.00 36 1014.3
20220705211646 98 197 0.0 1.0 0.00 0.00 0.00 37 1014.2
20220705211147 99 230 1.0 1.0 0.00 0.00 0.00 37 1014.3
20220705210647 98 253 3.0 3.0 0.00 0.00 0.00 37 1014.2
20220705210146 99 166 2.0 2.0 0.00 0.00 0.00 38 1014.5
20220705205644 99 187 3.0 3.0 0.00 0.00 0.00 37 1014.7
20220705205142 99 93 3.0 5.0 0.00 0.00 0.00 36 1014.8
20220705204640 98 202 2.0 3.0 0.00 0.00 0.00 38 1014.6
20220705204141 98 305 5.0 9.0 0.00 0.00 0.00 39 1014.8
20220705203639 98 209 1.0 2.0 0.00 0.00 0.00 39 1014.6
20220705203139 97 177 2.0 2.0 0.00 0.00 0.00 40 1015.0
20220705202639 98 108 4.0 5.0 0.00 0.00 0.00 38 1014.8
20220705202137 97 197 3.0 3.0 0.00 0.00 0.00 41 1015.2
20220705201636 97 14 3.0 5.0 0.00 0.00 0.00 41 1015.2
20220705201134 97 30 4.0 6.0 0.00 0.00 0.00 40 1015.1
20220705200634 97 174 4.0 6.0 0.00 0.00 0.00 40 1015.1
20220705200133 97 207 1.0 2.0 0.00 0.00 0.00 40 1015.5
20220705195633 96 201 3.0 5.0 0.00 0.00 0.00 42 1015.4
20220705195133 97 169 2.0 2.0 0.00 0.00 0.00 41 1015.4
20220705194633 96 157 3.0 5.0 0.00 0.00 0.00 41 1015.5
20220705194131 95 272 1.0 1.0 0.00 0.00 0.00 44 1015.3
20220705193631 95 202 2.0 2.0 0.00 0.00 0.00 44 1015.6
20220705193130 96 200 0.0 1.0 0.00 0.00 0.00 42 1015.5
20220705192628 96 153 4.0 5.0 0.00 0.00 0.00 42 1015.6
20220705192126 95 207 3.0 5.0 0.00 0.00 0.00 43 1015.7
20220705191627 95 319 3.0 3.0 0.00 0.00 0.00 43 1015.7
20220705191127 95 213 3.0 5.0 0.00 0.00 0.00 44 1016.1
20220705190627 95 27 3.0 5.0 0.00 0.00 0.00 44 1016.2
20220705190127 95 245 3.0 3.0 0.00 0.00 0.00 45 1016.2
20220705185626 95 221 2.0 2.0 0.00 0.00 0.00 44 1016.1
20220705185127 95 125 3.0 3.0 0.00 0.00 0.00 45 1016.3
20220705184626 95 200 1.0 1.0 0.00 0.00 0.00 44 1016.3
20220705184126 95 110 2.0 3.0 0.00 0.00 0.00 44 1016.3
20220705183624 93 197 1.0 2.0 0.00 0.00 0.00 45 1016.4
20220705183123 95 225 2.0 3.0 0.00 0.00 0.00 44 1016.9
20220705182622 94 232 1.0 2.0 0.00 0.00 0.00 47 1016.7
20220705182120 93 208 1.0 1.0 0.00 0.00 0.00 45 1017.0
20220705181621 93 217 1.0 2.0 0.00 0.00 0.00 46 1017.1
20220705181120 94 82 2.0 3.0 0.00 0.00 0.00 46 1016.9
20220705180618 92 190 3.0 3.0 0.00 0.00 0.00 49 1016.7
20220705180117 91 198 2.0 2.0 0.00 0.00 0.00 50 1017.2
20220705175616 91 190 3.0 3.0 0.00 0.00 0.00 51 1017.2
20220705175114 92 168 2.0 2.0 0.00 0.00 0.00 50 1017.2
20220705174614 92 207 3.0 3.0 0.00 0.00 0.00 51 1017.1
20220705174112 93 215 2.0 3.0 0.00 0.00 0.00 49 1017.4
20220705173612 92 309 3.0 3.0 0.00 0.00 0.00 49 1017.2
20220705173110 92 210 2.0 2.0 0.00 0.00 0.00 51 1017.4
20220705172610 91 327 2.0 3.0 0.00 0.00 0.00 51 1017.5
20220705172109 91 215 3.0 3.0 0.00 0.00 0.00 51 1017.4
20220705171608 90 286 1.0 1.0 0.00 0.00 0.00 53 1017.4
20220705171106 91 111 3.0 5.0 0.00 0.00 0.00 52 1017.5
20220705170605 91 190 2.0 2.0 0.00 0.00 0.00 52 1017.6
20220705170104 91 248 2.0 2.0 0.00 0.00 0.00 52 1017.5
20220705165603 90 196 1.0 1.0 0.00 0.00 0.00 53 1017.6
20220705165104 89 300 3.0 3.0 0.00 0.00 0.00 55 1017.4
20220705164602 89 26 3.0 3.0 0.00 0.00 0.00 55 1017.8
20220705164101 88 209 2.0 2.0 0.00 0.00 0.00 57 1017.5
20220705163600 89 220 4.0 6.0 0.00 0.00 0.00 55 1017.5
20220705163100 88 155 3.0 5.0 0.00 0.00 0.00 57 1017.7
20220705162559 87 153 2.0 2.0 0.00 0.00 0.00 58 1017.5
20220705162057 87 216 2.0 2.0 0.00 0.00 0.00 58 1017.5
20220705161557 86 191 2.0 2.0 0.00 0.00 0.00 63 1017.6
20220705161056 86 217 3.0 5.0 0.00 0.00 0.00 62 1017.5
20220705160555 86 76 4.0 6.0 0.00 0.00 0.00 63 1017.8
20220705160054 85 197 1.0 1.0 0.00 0.00 0.00 65 1017.6
20220705155553 86 224 3.0 5.0 0.00 0.00 0.00 63 1017.8
20220705155052 86 291 2.0 3.0 0.00 0.00 0.00 63 1017.7
20220705154552 85 210 2.0 2.0 0.00 0.00 0.00 63 1017.6
20220705154050 86 176 2.0 2.0 0.00 0.00 0.00 63 1017.7
20220705153549 85 79 4.0 6.0 0.00 0.00 0.00 65 1017.7
20220705153048 85 96 4.0 5.0 0.00 0.00 0.00 66 1017.8
20220705152548 83 112 3.0 3.0 0.00 0.00 0.00 68 1017.7
20220705152047 83 140 3.0 3.0 0.00 0.00 0.00 69 1018.1
20220705151546 83 239 2.0 2.0 0.00 0.00 0.00 69 1017.7
20220705151046 82 220 2.0 3.0 0.00 0.00 0.00 71 1017.9
20220705150544 82 143 4.0 5.0 0.00 0.00 0.00 72 1017.9
20220705150042 82 205 2.0 2.0 0.00 0.00 0.00 72 1017.7
20220705145542 81 213 2.0 2.0 0.00 0.00 0.00 71 1018.0
20220705145042 81 102 3.0 3.0 0.00 0.00 0.00 73 1018.0
20220705144542 83 132 3.0 3.0 0.00 0.00 0.00 71 1017.9
20220705144041 83 215 2.0 3.0 0.00 0.00 0.00 70 1017.7
20220705143540 83 142 3.0 3.0 0.00 0.00 0.00 71 1017.7
20220705143039 84 211 2.0 2.0 0.00 0.00 0.00 69 1017.7
20220705142538 84 230 3.0 5.0 0.00 0.00 0.00 69 1017.7
20220705142037 83 206 3.0 5.0 0.00 0.00 0.00 71 1017.7
20220705141538 82 215 3.0 5.0 0.00 0.00 0.00 73 1017.8
20220705141037 81 180 2.0 2.0 0.00 0.00 0.00 74 1017.6
20220705140535 80 223 3.0 3.0 0.00 0.00 0.00 76 1017.7
20220705140035 80 244 1.0 2.0 0.00 0.00 0.00 76 1017.6
20220705135533 79 185 4.0 5.0 0.00 0.00 0.00 78 1017.9
20220705135032 78 216 1.0 2.0 0.00 0.00 0.00 82 1017.8
20220705134532 77 135 2.0 3.0 0.00 0.00 0.00 83 1017.6
20220705134031 77 190 3.0 3.0 0.00 0.00 0.00 83 1017.9
20220705133530 78 210 2.0 2.0 0.00 0.00 0.00 83 1017.7
20220705133029 78 216 1.0 2.0 0.00 0.00 0.00 81 1017.6
20220705132529 78 221 2.0 3.0 0.00 0.00 0.00 82 1017.6
20220705132028 77 175 3.0 3.0 0.00 0.00 0.00 84 1017.5
20220705131526 77 266 3.0 3.0 0.00 0.00 0.00 84 1017.6
20220705131026 77 338 4.0 5.0 0.00 0.00 0.00 84 1017.7
20220705130525 78 216 1.0 1.0 0.00 0.00 0.00 83 1017.6
20220705130024 78 115 3.0 3.0 0.00 0.00 0.00 82 1017.6
20220705125522 77 222 1.0 2.0 0.00 0.00 0.00 84 1017.5
20220705125021 77 214 1.0 1.0 0.00 0.00 0.00 85 1017.4
20220705124520 76 209 0.0 0.0 0.00 0.00 0.00 86 1017.6
20220705124019 76 200 0.0 1.0 0.00 0.00 0.00 86 1017.4
20220705123518 77 221 1.0 1.0 0.00 0.00 0.00 85 1017.3
20220705123017 76 195 1.0 2.0 0.00 0.00 0.00 85 1017.3
20220705122518 75 214 0.0 1.0 0.00 0.00 0.00 89 1017.3
20220705122016 75 207 0.0 1.0 0.00 0.00 0.00 89 1017.3
20220705121516 75 212 0.0 1.0 0.00 0.00 0.00 89 1017.2
20220705121016 75 207 1.0 1.0 0.00 0.00 0.00 88 1017.1
20220705120515 76 206 1.0 1.0 0.00 0.00 0.00 87 1017.3
20220705120014 75 208 1.0 2.0 0.00 0.00 0.00 87 1017.2
20220705115513 74 266 1.0 3.0 0.00 0.00 0.00 89 1017.3
20220705115013 74 107 1.0 1.0 0.00 0.00 0.00 89 1017.3
20220705114511 74 232 1.0 2.0 0.00 0.00 0.00 89 1017.2
20220705114010 75 222 1.0 1.0 0.00 0.00 0.00 88 1017.1
20220705113510 75 209 0.0 1.0 0.00 0.00 0.00 87 1017.1
20220705113008 76 214 1.0 1.0 0.00 0.00 0.00 84 1017.1
20220705112508 75 218 1.0 1.0 0.00 0.00 0.00 87 1017.3
20220705112008 75 222 1.0 2.0 0.00 0.00 0.00 89 1017.4
20220705111506 75 251 1.0 3.0 0.00 0.00 0.00 89 1017.1
20220705111005 75 219 1.0 1.0 0.00 0.00 0.00 90 1017.2
20220705110504 75 213 0.0 1.0 0.00 0.00 0.00 89 1017.3
20220705110003 76 213 0.0 1.0 0.00 0.00 0.00 87 1017.2
20220705105503 75 197 1.0 1.0 0.00 0.00 0.00 89 1016.9
20220705105002 75 325 1.0 1.0 0.00 0.00 0.00 91 1017.0
20220705104501 75 220 1.0 1.0 0.00 0.00 0.00 90 1017.1
20220705104000 75 229 1.0 1.0 0.00 0.00 0.00 90 1016.7
20220705103500 76 223 1.0 1.0 0.00 0.00 0.00 88 1017.1
20220705102959 77 211 0.0 1.0 0.00 0.00 0.00 86 1017.0
20220705102458 75 215 1.0 1.0 0.00 0.00 0.00 89 1016.9
20220705101958 75 227 0.0 0.0 0.00 0.00 0.00 91 1017.1
20220705101457 75 208 1.0 1.0 0.00 0.00 0.00 90 1017.0
20220705100955 75 230 1.0 2.0 0.00 0.00 0.00 90 1017.1
20220705100453 76 211 1.0 1.0 0.00 0.00 0.00 88 1017.1
20220705095952 77 211 2.0 2.0 0.00 0.00 0.00 87 1017.2
20220705095452 75 225 1.0 1.0 0.00 0.00 0.00 90 1017.1
20220705094951 76 213 1.0 1.0 0.00 0.00 0.00 89 1017.1
20220705094449 76 207 0.0 0.0 0.00 0.00 0.00 89 1017.1
20220705093948 77 219 0.0 1.0 0.00 0.00 0.00 88 1016.9
20220705093449 77 221 1.0 1.0 0.00 0.00 0.00 86 1017.1
20220705092947 76 223 2.0 3.0 0.00 0.00 0.00 89 1017.1
20220705092446 76 209 1.0 1.0 0.00 0.00 0.00 89 1017.0
20220705091945 76 235 3.0 3.0 0.00 0.00 0.00 89 1017.0
20220705091445 76 212 1.0 1.0 0.00 0.00 0.00 88 1017.0
20220705090946 77 213 1.0 1.0 0.00 0.00 0.00 85 1016.9
20220705090445 77 210 1.0 1.0 0.00 0.00 0.00 85 1016.9
20220705085944 76 216 1.0 1.0 0.00 0.00 0.00 88 1017.1
20220705085444 76 227 1.0 1.0 0.00 0.00 0.00 88 1017.1
20220705084944 77 221 1.0 1.0 0.00 0.00 0.00 87 1017.0
20220705084442 77 232 1.0 1.0 0.00 0.00 0.00 86 1016.9
20220705083940 77 221 2.0 2.0 0.00 0.00 0.00 85 1017.0
20220705083438 76 249 1.0 1.0 0.00 0.00 0.00 87 1017.2
20220705082937 77 212 0.0 0.0 0.00 0.00 0.00 87 1017.4
20220705082435 77 193 1.0 1.0 0.00 0.00 0.00 86 1017.3
20220705081934 78 221 0.0 1.0 0.00 0.00 0.00 84 1017.3
20220705081433 77 221 1.0 2.0 0.00 0.00 0.00 85 1017.1
20220705080932 76 223 0.0 1.0 0.00 0.00 0.00 87 1017.3
20220705080432 77 228 1.0 1.0 0.00 0.00 0.00 86 1017.2
20220705075931 77 237 1.0 1.0 0.00 0.00 0.00 85 1017.4
20220705075432 78 268 1.0 2.0 0.00 0.00 0.00 82 1017.4
20220705074930 76 241 1.0 2.0 0.00 0.00 0.00 84 1017.5
20220705074429 76 223 1.0 1.0 0.00 0.00 0.00 85 1017.4
20220705073928 77 212 1.0 1.0 0.00 0.00 0.00 84 1017.6
20220705073426 78 217 1.0 2.0 0.00 0.00 0.00 82 1017.7
20220705072925 78 236 3.0 3.0 0.00 0.00 0.00 82 1017.8
20220705072424 77 317 2.0 2.0 0.00 0.00 0.00 84 1017.6
20220705071924 77 216 3.0 5.0 0.00 0.00 0.00 84 1017.5
20220705071424 78 225 1.0 1.0 0.00 0.00 0.00 83 1017.9
20220705070923 79 216 0.0 1.0 0.00 0.00 0.00 80 1017.7
20220705070424 78 217 1.0 1.0 0.00 0.00 0.00 81 1017.7
20220705065922 77 217 0.0 1.0 0.00 0.00 0.00 83 1017.8
20220705065421 78 225 0.0 0.0 0.00 0.00 0.00 82 1017.9
20220705064920 79 220 1.0 1.0 0.00 0.00 0.00 79 1017.9
20220705064418 78 215 1.0 2.0 0.00 0.00 0.00 81 1017.8
20220705063918 78 248 1.0 2.0 0.00 0.00 0.00 82 1018.0
20220705063417 78 287 0.0 1.0 0.00 0.00 0.00 81 1017.9
20220705062916 79 219 1.0 2.0 0.00 0.00 0.00 79 1017.9
20220705062414 80 267 2.0 2.0 0.00 0.00 0.00 78 1018.0
20220705061914 79 257 1.0 1.0 0.00 0.00 0.00 78 1017.9
20220705061413 79 226 1.0 1.0 0.00 0.00 0.00 81 1018.1
20220705060912 79 229 1.0 2.0 0.00 0.00 0.00 80 1018.0
20220705060412 80 219 3.0 3.0 0.00 0.00 0.00 77 1017.9
20220705055913 80 233 3.0 5.0 0.00 0.00 0.00 78 1017.8
20220705055411 79 318 3.0 3.0 0.00 0.00 0.00 79 1018.1
20220705054911 79 230 1.0 1.0 0.00 0.00 0.00 79 1018.1
20220705054410 80 130 3.0 5.0 0.00 0.00 0.00 77 1018.0
20220705053910 81 231 1.0 2.0 0.00 0.00 0.00 76 1018.2
20220705053409 80 217 0.0 1.0 0.00 0.00 0.00 76 1018.2
20220705052909 80 227 1.0 1.0 0.00 0.00 0.00 78 1018.0
20220705052408 80 215 6.0 10.0 0.00 0.00 0.00 77 1018.0
20220705051907 81 260 4.0 6.0 0.00 0.00 0.00 74 1018.0
20220705051407 81 214 2.0 2.0 0.00 0.00 0.00 75 1017.8
20220705050906 82 232 2.0 3.0 0.00 0.00 0.00 73 1017.8
20220705050407 82 231 3.0 5.0 0.00 0.00 0.00 73 1017.8
20220705045905 82 299 2.0 3.0 0.00 0.00 0.00 72 1017.9
20220705045404 82 192 2.0 3.0 0.00 0.00 0.00 72 1017.7
20220705044903 82 341 3.0 8.0 0.00 0.00 0.00 71 1017.8
20220705044401 83 312 3.0 3.0 0.00 0.00 0.00 70 1017.9
20220705043900 82 209 1.0 1.0 0.00 0.00 0.00 70 1017.9
20220705043359 83 295 3.0 3.0 0.00 0.00 0.00 69 1017.9
20220705042858 83 259 2.0 2.0 0.00 0.00 0.00 68 1017.6
20220705042358 83 211 2.0 3.0 0.00 0.00 0.00 68 1017.6
20220705041858 82 217 1.0 1.0 0.00 0.00 0.00 68 1017.5
20220705041356 83 245 2.0 5.0 0.00 0.00 0.00 68 1017.4
20220705040855 84 239 1.0 2.0 0.00 0.00 0.00 67 1017.5
20220705040355 84 149 2.0 3.0 0.00 0.00 0.00 65 1017.6
20220705035854 84 303 3.0 5.0 0.00 0.00 0.00 65 1017.3
20220705035352 84 215 2.0 3.0 0.00 0.00 0.00 64 1017.3
20220705034851 85 269 3.0 5.0 0.00 0.00 0.00 61 1017.2
20220705034351 85 245 1.0 2.0 0.00 0.00 0.00 61 1017.3
20220705033851 85 249 3.0 3.0 0.00 0.00 0.00 61 1017.1
20220705033351 85 261 2.0 5.0 0.00 0.00 0.00 62 1016.9
20220705032850 86 215 1.0 2.0 0.00 0.00 0.00 61 1016.5
20220705032348 86 195 1.0 1.0 0.00 0.00 0.00 60 1016.6
20220705031849 86 266 2.0 3.0 0.00 0.00 0.00 60 1016.4
20220705031347 86 308 4.0 5.0 0.00 0.00 0.00 60 1016.0
20220705030846 86 226 3.0 5.0 0.00 0.00 0.00 60 1016.2
20220705030345 86 299 3.0 6.0 0.00 0.00 0.00 59 1015.9
20220705025844 87 204 2.0 2.0 0.00 0.00 0.00 57 1015.9
20220705025345 87 285 7.0 10.0 0.00 0.00 0.00 57 1015.8
20220705024844 87 216 1.0 2.0 0.00 0.00 0.00 56 1015.8
20220705024344 88 187 1.0 2.0 0.00 0.00 0.00 55 1015.6
20220705023843 88 207 2.0 3.0 0.00 0.00 0.00 55 1015.7
20220705023341 88 208 1.0 2.0 0.00 0.00 0.00 54 1015.6
20220705022841 89 216 2.0 2.0 0.00 0.00 0.00 53 1015.6
20220705022341 89 218 2.0 2.0 0.00 0.00 0.00 52 1015.5
20220705021839 89 221 2.0 2.0 0.00 0.00 0.00 50 1015.4
20220705021340 90 219 3.0 3.0 0.00 0.00 0.00 50 1015.5
20220705020838 89 270 1.0 1.0 0.00 0.00 0.00 50 1015.2
20220705020336 89 214 2.0 2.0 0.00 0.00 0.00 51 1015.2
20220705015835 89 231 3.0 3.0 0.00 0.00 0.00 50 1014.9
20220705015333 90 330 1.0 2.0 0.00 0.00 0.00 50 1015.1
20220705014832 90 324 2.0 3.0 0.00 0.00 0.00 48 1015.1
20220705014331 90 229 2.0 5.0 0.00 0.00 0.00 49 1015.0
20220705013829 90 235 2.0 3.0 0.00 0.00 0.00 49 1015.1
20220705013328 91 232 3.0 3.0 0.00 0.00 0.00 48 1014.9
20220705012827 92 261 2.0 2.0 0.00 0.00 0.00 46 1015.0